createdAt,value
2022-10-01T00:02:57.241Z,60.93
2022-10-01T00:08:02.831Z,61.07
2022-10-01T00:13:08.212Z,61.23
2022-10-01T00:18:14.082Z,61.20
2022-10-01T00:23:20.017Z,61.32
2022-10-01T00:28:26.403Z,61.39
2022-10-01T00:33:32.265Z,61.51
2022-10-01T00:38:41.804Z,61.56
2022-10-01T00:43:50.366Z,61.53
2022-10-01T00:49:13.687Z,61.67
2022-10-01T00:54:22.486Z,61.79
2022-10-01T00:59:29.486Z,61.88
2022-10-01T01:04:35.138Z,61.83
2022-10-01T01:09:43.580Z,61.85
2022-10-01T01:15:19.419Z,62.01
2022-10-01T01:20:53.457Z,62.10
2022-10-01T01:26:24.639Z,62.07
2022-10-01T01:31:33.985Z,62.31
2022-10-01T01:36:43.365Z,62.34
2022-10-01T01:41:51.855Z,62.37
2022-10-01T01:46:58.377Z,62.37
2022-10-01T01:52:16.162Z,62.64
2022-10-01T01:57:22.267Z,62.67
2022-10-01T02:02:32.814Z,62.59
2022-10-01T02:07:55.409Z,62.66
2022-10-01T02:13:24.260Z,62.72
2022-10-01T02:18:32.818Z,62.81
2022-10-01T02:23:41.327Z,62.90
2022-10-01T02:28:49.053Z,62.93
2022-10-01T02:33:56.816Z,62.99
2022-10-01T02:39:05.453Z,63.05
2022-10-01T02:44:13.867Z,63.00
2022-10-01T02:49:20.233Z,63.17
2022-10-01T02:54:37.464Z,63.05
2022-10-01T02:59:43.071Z,62.92
2022-10-01T03:04:51.465Z,62.96
2022-10-01T03:09:57.205Z,62.93
2022-10-01T03:15:02.870Z,62.83
2022-10-01T03:20:09.549Z,62.67
2022-10-01T03:25:16.339Z,62.69
2022-10-01T03:30:22.368Z,62.50
2022-10-01T03:35:27.894Z,62.69
2022-10-01T03:40:34.937Z,62.43
2022-10-01T03:45:41.129Z,62.53
2022-10-01T03:50:55.433Z,62.68
2022-10-01T03:56:01.754Z,62.62
2022-10-01T04:01:07.204Z,62.67
2022-10-01T04:06:13.360Z,62.83
2022-10-01T04:11:18.759Z,62.80
2022-10-01T04:16:25.011Z,62.78
2022-10-01T04:21:30.613Z,62.84
2022-10-01T04:26:36.504Z,63.07
2022-10-01T04:31:42.027Z,63.16
2022-10-01T04:36:47.719Z,63.20
2022-10-01T04:41:53.111Z,63.26
2022-10-01T04:46:58.564Z,63.49
2022-10-01T04:52:04.979Z,63.58
2022-10-01T04:57:10.361Z,63.53
2022-10-01T05:02:16.285Z,63.63
2022-10-01T05:07:22.402Z,63.87
2022-10-01T05:12:28.914Z,63.93
2022-10-01T05:17:34.667Z,63.98
2022-10-01T05:22:40.059Z,64.26
2022-10-01T05:27:46.159Z,64.51
2022-10-01T05:33:00.163Z,64.52
2022-10-01T05:38:05.559Z,64.67
2022-10-01T05:43:11.265Z,64.84
2022-10-01T05:48:16.659Z,64.83
2022-10-01T05:53:23.594Z,64.95
2022-10-01T05:58:29.487Z,65.06
2022-10-01T06:03:36.106Z,65.09
2022-10-01T06:08:41.563Z,64.80
2022-10-01T06:13:47.295Z,65.31
2022-10-01T06:18:54.318Z,64.97
2022-10-01T06:24:00.070Z,64.69
2022-10-01T06:29:05.454Z,64.56
2022-10-01T06:34:13.231Z,64.34
2022-10-01T06:39:18.626Z,64.40
2022-10-01T06:44:24.027Z,64.23
2022-10-01T06:49:29.418Z,64.51
2022-10-01T06:54:34.807Z,64.42
2022-10-01T06:59:40.193Z,64.18
2022-10-01T07:04:48.805Z,63.67
2022-10-01T07:09:54.284Z,63.95
2022-10-01T07:14:59.673Z,63.26
2022-10-01T07:20:05.979Z,63.69
2022-10-01T07:25:11.799Z,63.56
2022-10-01T07:30:17.342Z,63.18
2022-10-01T07:35:23.376Z,63.41
2022-10-01T07:40:28.784Z,63.36
2022-10-01T07:45:34.459Z,63.32
2022-10-01T07:50:39.968Z,63.00
2022-10-01T07:55:45.541Z,62.67
2022-10-01T08:00:52.852Z,62.86
2022-10-01T08:05:58.268Z,62.85
2022-10-01T08:11:04.200Z,62.30
2022-10-01T08:16:11.453Z,62.69
2022-10-01T08:21:16.881Z,62.35
2022-10-01T08:26:22.347Z,62.53
2022-10-01T08:31:28.399Z,62.29
2022-10-01T08:36:35.492Z,62.15
2022-10-01T08:41:56.222Z,62.00
2022-10-01T08:47:04.734Z,61.94
2022-10-01T08:52:31.101Z,62.02
2022-10-01T08:57:39.614Z,61.78
2022-10-01T09:02:46.990Z,61.54
2022-10-01T09:07:58.273Z,61.45
2022-10-01T09:13:18.916Z,61.45
2022-10-01T09:18:33.182Z,61.12
2022-10-01T09:23:41.691Z,61.03
2022-10-01T09:28:50.141Z,60.94
2022-10-01T09:34:15.883Z,60.78
2022-10-01T09:39:27.316Z,60.60
2022-10-01T09:44:35.042Z,60.68
2022-10-01T09:49:44.071Z,60.64
2022-10-01T09:54:55.000Z,60.32
2022-10-01T10:00:24.709Z,60.44
2022-10-01T10:05:33.325Z,60.40
2022-10-01T10:10:41.156Z,60.19
2022-10-01T10:15:58.314Z,59.90
2022-10-01T10:21:08.078Z,60.00
2022-10-01T10:26:16.601Z,60.02
2022-10-01T10:31:25.367Z,60.22
2022-10-01T10:36:34.092Z,60.35
2022-10-01T10:41:44.349Z,59.87
2022-10-01T10:46:51.186Z,59.68
2022-10-01T10:51:58.709Z,59.18
2022-10-01T10:57:08.318Z,58.81
2022-10-01T11:02:16.815Z,58.60
2022-10-01T11:07:25.589Z,58.04
2022-10-01T11:12:47.497Z,57.53
2022-10-01T11:18:02.456Z,57.39
2022-10-01T11:23:26.949Z,57.07
2022-10-01T11:28:50.195Z,56.42
2022-10-01T11:34:21.018Z,56.51
2022-10-01T11:39:29.741Z,55.71
2022-10-01T11:45:01.046Z,55.54
2022-10-01T11:50:18.786Z,55.33
2022-10-01T11:55:54.172Z,55.36
2022-10-01T12:01:08.592Z,54.83
2022-10-01T12:06:16.780Z,54.90
2022-10-01T12:11:31.270Z,55.19
2022-10-01T12:16:57.844Z,56.28
2022-10-01T12:22:09.391Z,56.58
2022-10-01T12:27:29.765Z,56.82
2022-10-01T12:32:38.198Z,56.92
2022-10-01T12:37:49.472Z,56.99
2022-10-01T12:43:22.218Z,57.89
2022-10-01T12:48:52.777Z,58.31
2022-10-01T12:54:35.161Z,58.58
2022-10-01T12:59:50.385Z,59.73
2022-10-01T13:05:05.277Z,60.46
2022-10-01T13:10:16.532Z,61.37
2022-10-01T13:15:31.913Z,61.29
2022-10-01T13:20:43.512Z,61.72
2022-10-01T13:26:06.254Z,62.63
2022-10-01T13:31:18.979Z,63.33
2022-10-01T13:36:36.735Z,63.65
2022-10-01T13:41:43.341Z,64.26
2022-10-01T13:46:54.434Z,64.27
2022-10-01T13:52:02.319Z,65.01
2022-10-01T13:57:13.314Z,65.41
2022-10-01T14:02:37.093Z,65.96
2022-10-01T14:07:45.762Z,66.13
2022-10-01T14:13:10.581Z,67.11
2022-10-01T14:18:21.922Z,67.43
2022-10-01T14:23:48.745Z,67.45
2022-10-01T14:29:01.014Z,67.79
2022-10-01T14:34:21.071Z,68.45
2022-10-01T14:39:28.725Z,68.29
2022-10-01T14:44:45.843Z,69.22
2022-10-01T14:49:52.368Z,69.46
2022-10-01T14:55:03.884Z,69.87
2022-10-01T15:00:12.608Z,70.11
2022-10-01T15:05:37.480Z,70.37
2022-10-01T15:10:48.427Z,70.82
2022-10-01T15:15:55.808Z,71.33
2022-10-01T15:21:09.095Z,71.19
2022-10-01T15:26:17.267Z,71.63
2022-10-01T15:31:23.521Z,71.77
2022-10-01T15:36:29.969Z,72.11
2022-10-01T15:41:36.828Z,71.98
2022-10-01T15:46:42.944Z,72.51
2022-10-01T15:52:15.262Z,72.67
2022-10-01T15:57:25.917Z,73.19
2022-10-01T16:02:33.422Z,73.39
2022-10-01T16:07:40.498Z,73.48
2022-10-01T16:12:46.214Z,73.97
2022-10-01T16:17:57.368Z,74.08
2022-10-01T16:23:28.177Z,71.37
2022-10-01T16:28:37.619Z,73.56
2022-10-01T16:33:42.999Z,74.38
2022-10-01T16:38:49.314Z,74.62
2022-10-01T16:43:57.101Z,75.15
2022-10-01T16:49:02.771Z,75.60
2022-10-01T16:54:20.103Z,75.76
2022-10-01T16:59:25.650Z,75.93
2022-10-01T17:04:34.109Z,76.23
2022-10-01T17:09:39.726Z,76.60
2022-10-01T17:14:45.126Z,76.82
2022-10-01T17:19:50.536Z,76.77
2022-10-01T17:24:55.939Z,76.79
2022-10-01T17:30:01.403Z,77.02
2022-10-01T17:35:07.834Z,77.17
2022-10-01T17:40:13.295Z,77.59
2022-10-01T17:45:18.834Z,77.97
2022-10-01T17:50:24.470Z,78.27
2022-10-01T17:55:30.109Z,79.29
2022-10-01T18:00:38.314Z,78.79
2022-10-01T18:05:43.722Z,79.02
2022-10-01T18:10:49.101Z,79.29
2022-10-01T18:16:03.758Z,79.39
2022-10-01T18:21:15.365Z,79.43
2022-10-01T18:26:20.761Z,79.68
2022-10-01T18:31:28.312Z,80.14
2022-10-01T18:36:53.294Z,80.41
2022-10-01T18:41:59.287Z,80.71
2022-10-01T18:47:25.999Z,80.95
2022-10-01T18:52:53.852Z,81.12
2022-10-01T18:58:19.450Z,81.27
2022-10-01T19:03:30.422Z,81.61
2022-10-01T19:08:57.167Z,81.48
2022-10-01T19:14:08.655Z,81.50
2022-10-01T19:19:52.790Z,81.81
2022-10-01T19:25:22.562Z,81.80
2022-10-01T19:30:33.877Z,82.07
2022-10-01T19:35:51.341Z,82.01
2022-10-01T19:40:59.931Z,82.25
2022-10-01T19:46:20.813Z,82.36
2022-10-01T19:51:38.855Z,82.39
2022-10-01T19:56:46.813Z,82.47
2022-10-01T20:02:03.709Z,82.52
2022-10-01T20:07:12.217Z,82.48
2022-10-01T20:12:29.554Z,82.57
2022-10-01T20:17:55.353Z,82.56
2022-10-01T20:23:12.746Z,82.54
2022-10-01T20:28:38.089Z,82.70
2022-10-01T20:33:59.220Z,82.67
2022-10-01T20:39:08.046Z,82.64
2022-10-01T20:44:16.531Z,82.94
2022-10-01T20:49:33.917Z,82.83
2022-10-01T20:54:42.348Z,82.65
2022-10-01T20:59:53.615Z,82.85
2022-10-01T21:05:08.139Z,82.78
2022-10-01T21:10:53.792Z,82.96
2022-10-01T21:16:20.441Z,83.00
2022-10-01T21:21:57.775Z,83.02
2022-10-01T21:27:34.840Z,83.14
2022-10-01T21:32:58.816Z,83.49
2022-10-01T21:38:28.565Z,83.38
2022-10-01T21:43:46.112Z,83.69
2022-10-01T21:48:54.534Z,83.56
2022-10-01T21:54:02.971Z,83.82
2022-10-01T21:59:29.536Z,83.87
2022-10-01T22:04:46.740Z,83.90
2022-10-01T22:09:55.512Z,84.25
2022-10-01T22:15:02.241Z,84.35
2022-10-01T22:20:08.901Z,84.44
2022-10-01T22:25:15.313Z,84.47
2022-10-01T22:30:23.921Z,84.63
2022-10-01T22:35:53.570Z,84.51
2022-10-01T22:41:27.512Z,84.26
2022-10-01T22:46:50.888Z,84.74
2022-10-01T22:52:02.341Z,84.95
2022-10-01T22:57:25.761Z,85.02
2022-10-01T23:02:50.724Z,84.82
2022-10-01T23:08:04.693Z,84.83
2022-10-01T23:13:27.924Z,84.63
2022-10-01T23:18:45.257Z,84.23
2022-10-01T23:23:56.442Z,84.29
2022-10-01T23:29:10.504Z,84.21
2022-10-01T23:34:49.377Z,84.07
2022-10-01T23:40:04.154Z,84.08
2022-10-01T23:45:27.843Z,84.19
2022-10-01T23:50:44.692Z,84.32
2022-10-01T23:56:13.551Z,84.36
